sensor_id;sensor_type;location;lat;lon;timestamp;pressure;altitude;pressure_sealevel;temperature
76381;BMP280;65202;52.520;10.528;2024-03-29T00:01:37;99010.41;;;8.78
76381;BMP280;65202;52.520;10.528;2024-03-29T00:04:03;99027.69;;;8.71
76381;BMP280;65202;52.520;10.528;2024-03-29T00:06:30;99012.19;;;8.84
76381;BMP280;65202;52.520;10.528;2024-03-29T00:08:57;99011.28;;;8.82
76381;BMP280;65202;52.520;10.528;2024-03-29T00:11:23;99011.00;;;8.70
76381;BMP280;65202;52.520;10.528;2024-03-29T00:13:50;99007.84;;;8.77
76381;BMP280;65202;52.520;10.528;2024-03-29T00:16:16;99012.78;;;8.74
76381;BMP280;65202;52.520;10.528;2024-03-29T00:18:43;99015.03;;;8.64
76381;BMP280;65202;52.520;10.528;2024-03-29T00:21:10;99025.63;;;8.57
76381;BMP280;65202;52.520;10.528;2024-03-29T00:23:36;99011.22;;;8.79
76381;BMP280;65202;52.520;10.528;2024-03-29T00:26:03;99016.13;;;8.75
76381;BMP280;65202;52.520;10.528;2024-03-29T00:28:30;99011.78;;;8.68
76381;BMP280;65202;52.520;10.528;2024-03-29T00:30:56;99001.03;;;8.70
76381;BMP280;65202;52.520;10.528;2024-03-29T00:33:23;99012.03;;;8.78
76381;BMP280;65202;52.520;10.528;2024-03-29T00:35:50;99000.97;;;8.67
76381;BMP280;65202;52.520;10.528;2024-03-29T00:38:16;99010.63;;;8.89
76381;BMP280;65202;52.520;10.528;2024-03-29T00:40:42;99015.28;;;8.76
76381;BMP280;65202;52.520;10.528;2024-03-29T00:43:09;99022.84;;;8.45
76381;BMP280;65202;52.520;10.528;2024-03-29T00:45:36;99010.97;;;8.67
76381;BMP280;65202;52.520;10.528;2024-03-29T00:48:03;99013.88;;;8.51
76381;BMP280;65202;52.520;10.528;2024-03-29T00:50:30;99028.53;;;8.73
76381;BMP280;65202;52.520;10.528;2024-03-29T00:52:56;99021.25;;;8.48
76381;BMP280;65202;52.520;10.528;2024-03-29T00:55:23;99018.47;;;8.36
76381;BMP280;65202;52.520;10.528;2024-03-29T00:57:50;99015.41;;;8.46
76381;BMP280;65202;52.520;10.528;2024-03-29T01:00:16;99027.72;;;8.40
76381;BMP280;65202;52.520;10.528;2024-03-29T01:02:43;99022.59;;;8.68
76381;BMP280;65202;52.520;10.528;2024-03-29T01:05:09;99025.53;;;8.52
76381;BMP280;65202;52.520;10.528;2024-03-29T01:07:35;99025.13;;;8.36
76381;BMP280;65202;52.520;10.528;2024-03-29T01:10:02;99023.84;;;8.51
76381;BMP280;65202;52.520;10.528;2024-03-29T01:12:29;99016.78;;;8.35
76381;BMP280;65202;52.520;10.528;2024-03-29T01:14:55;99015.84;;;8.64
76381;BMP280;65202;52.520;10.528;2024-03-29T01:17:22;99015.78;;;8.61
76381;BMP280;65202;52.520;10.528;2024-03-29T01:19:48;99018.34;;;8.64
76381;BMP280;65202;52.520;10.528;2024-03-29T01:22:15;99023.47;;;8.69
76381;BMP280;65202;52.520;10.528;2024-03-29T01:24:41;99025.75;;;8.61
76381;BMP280;65202;52.520;10.528;2024-03-29T01:27:08;99034.03;;;8.60
76381;BMP280;65202;52.520;10.528;2024-03-29T01:29:34;99036.72;;;8.35
76381;BMP280;65202;52.520;10.528;2024-03-29T01:32:02;99035.56;;;8.55
76381;BMP280;65202;52.520;10.528;2024-03-29T01:34:28;99040.72;;;8.61
76381;BMP280;65202;52.520;10.528;2024-03-29T01:36:54;99034.59;;;8.49
76381;BMP280;65202;52.520;10.528;2024-03-29T01:39:21;99040.50;;;8.52
76381;BMP280;65202;52.520;10.528;2024-03-29T01:41:52;99032.06;;;8.47
76381;BMP280;65202;52.520;10.528;2024-03-29T01:44:19;99047.56;;;8.36
76381;BMP280;65202;52.520;10.528;2024-03-29T01:46:46;99047.22;;;8.24
76381;BMP280;65202;52.520;10.528;2024-03-29T01:49:13;99032.69;;;8.40
76381;BMP280;65202;52.520;10.528;2024-03-29T01:51:41;99034.22;;;8.35
76381;BMP280;65202;52.520;10.528;2024-03-29T01:54:08;99034.63;;;8.50
76381;BMP280;65202;52.520;10.528;2024-03-29T01:56:40;99027.13;;;8.50
76381;BMP280;65202;52.520;10.528;2024-03-29T01:59:13;99026.75;;;8.35
76381;BMP280;65202;52.520;10.528;2024-03-29T02:01:42;99029.94;;;8.62
76381;BMP280;65202;52.520;10.528;2024-03-29T02:04:09;99033.44;;;8.36
76381;BMP280;65202;52.520;10.528;2024-03-29T02:06:37;99034.97;;;8.31
76381;BMP280;65202;52.520;10.528;2024-03-29T02:09:04;99031.75;;;8.35
76381;BMP280;65202;52.520;10.528;2024-03-29T02:11:32;99028.59;;;8.42
76381;BMP280;65202;52.520;10.528;2024-03-29T02:13:59;99036.84;;;8.40
76381;BMP280;65202;52.520;10.528;2024-03-29T02:16:27;99041.94;;;8.44
76381;BMP280;65202;52.520;10.528;2024-03-29T02:18:53;99041.19;;;8.47
76381;BMP280;65202;52.520;10.528;2024-03-29T02:21:20;99046.16;;;8.15
76381;BMP280;65202;52.520;10.528;2024-03-29T02:24:05;99064.63;;;8.22
76381;BMP280;65202;52.520;10.528;2024-03-29T02:26:33;99068.34;;;8.36
76381;BMP280;65202;52.520;10.528;2024-03-29T02:29:03;99070.56;;;8.26
76381;BMP280;65202;52.520;10.528;2024-03-29T02:31:29;99083.88;;;8.28
76381;BMP280;65202;52.520;10.528;2024-03-29T02:33:56;99087.78;;;7.91
76381;BMP280;65202;52.520;10.528;2024-03-29T02:36:23;99090.25;;;8.17
76381;BMP280;65202;52.520;10.528;2024-03-29T02:38:50;99097.31;;;8.33
76381;BMP280;65202;52.520;10.528;2024-03-29T02:41:17;99084.56;;;8.22
76381;BMP280;65202;52.520;10.528;2024-03-29T02:43:44;99082.94;;;8.24
76381;BMP280;65202;52.520;10.528;2024-03-29T02:46:10;99088.38;;;8.12
76381;BMP280;65202;52.520;10.528;2024-03-29T02:48:36;99090.44;;;8.24
76381;BMP280;65202;52.520;10.528;2024-03-29T02:51:03;99081.53;;;8.32
76381;BMP280;65202;52.520;10.528;2024-03-29T02:53:30;99076.38;;;8.26
76381;BMP280;65202;52.520;10.528;2024-03-29T02:55:56;99081.50;;;8.31
76381;BMP280;65202;52.520;10.528;2024-03-29T02:58:23;99080.63;;;8.30
76381;BMP280;65202;52.520;10.528;2024-03-29T03:00:49;99070.50;;;8.24
76381;BMP280;65202;52.520;10.528;2024-03-29T03:03:16;99058.38;;;8.36
76381;BMP280;65202;52.520;10.528;2024-03-29T03:05:43;99052.97;;;8.21
76381;BMP280;65202;52.520;10.528;2024-03-29T03:08:09;99060.69;;;8.30
76381;BMP280;65202;52.520;10.528;2024-03-29T03:10:55;99036.00;;;8.39
76381;BMP280;65202;52.520;10.528;2024-03-29T03:13:28;99028.78;;;8.17
76381;BMP280;65202;52.520;10.528;2024-03-29T03:15:55;99025.13;;;8.36
76381;BMP280;65202;52.520;10.528;2024-03-29T03:18:22;99012.84;;;8.43
76381;BMP280;65202;52.520;10.528;2024-03-29T03:20:53;99006.28;;;8.15
76381;BMP280;65202;52.520;10.528;2024-03-29T03:23:20;99004.97;;;8.28
76381;BMP280;65202;52.520;10.528;2024-03-29T03:25:56;98999.28;;;8.34
76381;BMP280;65202;52.520;10.528;2024-03-29T03:28:26;98994.06;;;8.23
76381;BMP280;65202;52.520;10.528;2024-03-29T03:30:53;99001.06;;;8.38
76381;BMP280;65202;52.520;10.528;2024-03-29T03:33:20;99001.97;;;8.41
76381;BMP280;65202;52.520;10.528;2024-03-29T03:35:47;99006.75;;;8.32
76381;BMP280;65202;52.520;10.528;2024-03-29T03:38:14;99014.50;;;8.12
76381;BMP280;65202;52.520;10.528;2024-03-29T03:40:42;99016.91;;;8.40
76381;BMP280;65202;52.520;10.528;2024-03-29T03:43:09;99020.09;;;8.05
76381;BMP280;65202;52.520;10.528;2024-03-29T03:45:40;99003.91;;;8.20
76381;BMP280;65202;52.520;10.528;2024-03-29T03:48:08;99004.25;;;8.32
76381;BMP280;65202;52.520;10.528;2024-03-29T03:50:38;99010.34;;;8.43
76381;BMP280;65202;52.520;10.528;2024-03-29T03:53:05;99013.09;;;8.54
76381;BMP280;65202;52.520;10.528;2024-03-29T03:55:35;99003.91;;;8.51
76381;BMP280;65202;52.520;10.528;2024-03-29T03:58:03;99010.44;;;8.48
76381;BMP280;65202;52.520;10.528;2024-03-29T04:00:29;99022.19;;;8.52
76381;BMP280;65202;52.520;10.528;2024-03-29T04:02:56;99028.22;;;8.60
76381;BMP280;65202;52.520;10.528;2024-03-29T04:05:23;99020.63;;;8.55
76381;BMP280;65202;52.520;10.528;2024-03-29T04:07:51;99023.84;;;8.51
76381;BMP280;65202;52.520;10.528;2024-03-29T04:10:17;99021.59;;;8.62
76381;BMP280;65202;52.520;10.528;2024-03-29T04:12:43;99037.34;;;8.59
76381;BMP280;65202;52.520;10.528;2024-03-29T04:15:10;99025.34;;;8.45
76381;BMP280;65202;52.520;10.528;2024-03-29T04:17:36;99021.88;;;8.38
76381;BMP280;65202;52.520;10.528;2024-03-29T04:20:03;99019.09;;;8.60
76381;BMP280;65202;52.520;10.528;2024-03-29T04:22:30;99016.97;;;8.75
76381;BMP280;65202;52.520;10.528;2024-03-29T04:24:57;99023.06;;;8.52
76381;BMP280;65202;52.520;10.528;2024-03-29T04:27:25;99026.59;;;8.29
76381;BMP280;65202;52.520;10.528;2024-03-29T04:29:55;99031.09;;;8.13
76381;BMP280;65202;52.520;10.528;2024-03-29T04:32:22;99027.06;;;8.47
76381;BMP280;65202;52.520;10.528;2024-03-29T04:34:49;99033.84;;;8.20
76381;BMP280;65202;52.520;10.528;2024-03-29T04:37:16;99038.03;;;8.21
76381;BMP280;65202;52.520;10.528;2024-03-29T04:39:43;99045.72;;;8.30
76381;BMP280;65202;52.520;10.528;2024-03-29T04:42:11;99049.00;;;8.28
76381;BMP280;65202;52.520;10.528;2024-03-29T04:44:38;99034.25;;;8.37
76381;BMP280;65202;52.520;10.528;2024-03-29T04:47:05;99035.47;;;8.18
76381;BMP280;65202;52.520;10.528;2024-03-29T04:49:32;99032.59;;;8.36
76381;BMP280;65202;52.520;10.528;2024-03-29T04:52:04;99023.75;;;8.16
76381;BMP280;65202;52.520;10.528;2024-03-29T04:54:34;99027.06;;;8.15
76381;BMP280;65202;52.520;10.528;2024-03-29T04:57:02;99028.81;;;8.19
76381;BMP280;65202;52.520;10.528;2024-03-29T04:59:32;99037.25;;;8.24
76381;BMP280;65202;52.520;10.528;2024-03-29T05:02:00;99034.16;;;8.32
76381;BMP280;65202;52.520;10.528;2024-03-29T05:04:26;99036.88;;;8.41
76381;BMP280;65202;52.520;10.528;2024-03-29T05:06:54;99047.34;;;8.28
76381;BMP280;65202;52.520;10.528;2024-03-29T05:09:22;99055.88;;;8.36
76381;BMP280;65202;52.520;10.528;2024-03-29T05:11:49;99057.97;;;8.21
76381;BMP280;65202;52.520;10.528;2024-03-29T05:14:16;99060.47;;;8.23
76381;BMP280;65202;52.520;10.528;2024-03-29T05:16:45;99060.41;;;8.20
76381;BMP280;65202;52.520;10.528;2024-03-29T05:19:13;99064.63;;;8.22
76381;BMP280;65202;52.520;10.528;2024-03-29T05:21:41;99082.19;;;8.58
76381;BMP280;65202;52.520;10.528;2024-03-29T05:24:08;99085.59;;;8.29
76381;BMP280;65202;52.520;10.528;2024-03-29T05:26:35;99092.69;;;8.46
76381;BMP280;65202;52.520;10.528;2024-03-29T05:29:01;99086.75;;;8.41
76381;BMP280;65202;52.520;10.528;2024-03-29T05:31:30;99098.41;;;8.42
76381;BMP280;65202;52.520;10.528;2024-03-29T05:33:57;99099.41;;;8.49
76381;BMP280;65202;52.520;10.528;2024-03-29T05:36:23;99099.78;;;8.31
76381;BMP280;65202;52.520;10.528;2024-03-29T05:38:50;99101.72;;;8.41
76381;BMP280;65202;52.520;10.528;2024-03-29T05:41:16;99109.50;;;8.53
76381;BMP280;65202;52.520;10.528;2024-03-29T05:43:42;99118.19;;;8.36
76381;BMP280;65202;52.520;10.528;2024-03-29T05:46:09;99115.06;;;8.43
76381;BMP280;65202;52.520;10.528;2024-03-29T05:48:35;99129.81;;;8.36
76381;BMP280;65202;52.520;10.528;2024-03-29T05:51:02;99143.44;;;8.48
76381;BMP280;65202;52.520;10.528;2024-03-29T05:53:29;99142.31;;;8.68
76381;BMP280;65202;52.520;10.528;2024-03-29T05:55:55;99146.47;;;8.68
76381;BMP280;65202;52.520;10.528;2024-03-29T05:58:22;99148.22;;;8.70
76381;BMP280;65202;52.520;10.528;2024-03-29T06:00:48;99158.91;;;8.66
76381;BMP280;65202;52.520;10.528;2024-03-29T06:03:15;99166.09;;;8.56
76381;BMP280;65202;52.520;10.528;2024-03-29T06:05:42;99166.47;;;8.69
76381;BMP280;65202;52.520;10.528;2024-03-29T06:08:09;99156.81;;;8.81
76381;BMP280;65202;52.520;10.528;2024-03-29T06:10:35;99165.19;;;8.83
76381;BMP280;65202;52.520;10.528;2024-03-29T06:13:01;99154.78;;;8.68
76381;BMP280;65202;52.520;10.528;2024-03-29T06:15:34;99171.09;;;8.86
76381;BMP280;65202;52.520;10.528;2024-03-29T06:18:19;99173.47;;;8.82
76381;BMP280;65202;52.520;10.528;2024-03-29T06:20:47;99175.38;;;8.92
76381;BMP280;65202;52.520;10.528;2024-03-29T06:23:15;99184.69;;;8.97
76381;BMP280;65202;52.520;10.528;2024-03-29T06:25:41;99183.38;;;8.79
76381;BMP280;65202;52.520;10.528;2024-03-29T06:28:08;99190.53;;;8.98
76381;BMP280;65202;52.520;10.528;2024-03-29T06:30:35;99189.50;;;8.90
76381;BMP280;65202;52.520;10.528;2024-03-29T06:33:01;99203.91;;;9.00
76381;BMP280;65202;52.520;10.528;2024-03-29T06:35:30;99199.66;;;8.96
76381;BMP280;65202;52.520;10.528;2024-03-29T06:37:56;99203.00;;;8.98
76381;BMP280;65202;52.520;10.528;2024-03-29T06:40:24;99211.06;;;8.88
76381;BMP280;65202;52.520;10.528;2024-03-29T06:42:50;99216.44;;;9.03
76381;BMP280;65202;52.520;10.528;2024-03-29T06:45:17;99212.13;;;8.96
76381;BMP280;65202;52.520;10.528;2024-03-29T06:47:44;99195.47;;;8.96
76381;BMP280;65202;52.520;10.528;2024-03-29T06:50:10;99182.81;;;8.89
76381;BMP280;65202;52.520;10.528;2024-03-29T06:52:37;99187.44;;;9.06
76381;BMP280;65202;52.520;10.528;2024-03-29T06:55:03;99201.63;;;9.09
76381;BMP280;65202;52.520;10.528;2024-03-29T06:57:30;99190.69;;;9.04
76381;BMP280;65202;52.520;10.528;2024-03-29T06:59:58;99190.50;;;8.96
76381;BMP280;65202;52.520;10.528;2024-03-29T07:02:24;99187.41;;;9.05
76381;BMP280;65202;52.520;10.528;2024-03-29T07:04:51;99193.19;;;9.04
76381;BMP280;65202;52.520;10.528;2024-03-29T07:07:18;99179.69;;;8.96
76381;BMP280;65202;52.520;10.528;2024-03-29T07:09:44;99167.50;;;8.77
76381;BMP280;65202;52.520;10.528;2024-03-29T07:12:11;99172.78;;;8.87
76381;BMP280;65202;52.520;10.528;2024-03-29T07:14:37;99174.34;;;8.84
76381;BMP280;65202;52.520;10.528;2024-03-29T07:17:04;99158.69;;;8.89
76381;BMP280;65202;52.520;10.528;2024-03-29T07:19:30;99156.00;;;8.82
76381;BMP280;65202;52.520;10.528;2024-03-29T07:21:57;99165.66;;;9.01
76381;BMP280;65202;52.520;10.528;2024-03-29T07:24:23;99166.75;;;8.79
76381;BMP280;65202;52.520;10.528;2024-03-29T07:26:50;99168.66;;;8.57
76381;BMP280;65202;52.520;10.528;2024-03-29T07:29:16;99164.31;;;8.81
76381;BMP280;65202;52.520;10.528;2024-03-29T07:31:43;99163.81;;;8.63
76381;BMP280;65202;52.520;10.528;2024-03-29T07:34:09;99164.66;;;8.64
76381;BMP280;65202;52.520;10.528;2024-03-29T07:36:36;99173.28;;;8.45
76381;BMP280;65202;52.520;10.528;2024-03-29T07:39:03;99158.34;;;8.45
76381;BMP280;65202;52.520;10.528;2024-03-29T07:41:30;99147.56;;;8.46
76381;BMP280;65202;52.520;10.528;2024-03-29T07:43:57;99157.63;;;8.51
76381;BMP280;65202;52.520;10.528;2024-03-29T07:46:33;99143.44;;;8.48
76381;BMP280;65202;52.520;10.528;2024-03-29T07:49:01;99150.31;;;8.26
76381;BMP280;65202;52.520;10.528;2024-03-29T07:51:28;99147.59;;;8.48
76381;BMP280;65202;52.520;10.528;2024-03-29T07:53:54;99131.47;;;8.35
76381;BMP280;65202;52.520;10.528;2024-03-29T07:56:21;99130.19;;;8.20
76381;BMP280;65202;52.520;10.528;2024-03-29T07:58:52;99126.69;;;8.14
76381;BMP280;65202;52.520;10.528;2024-03-29T08:01:23;99120.50;;;8.30
76381;BMP280;65202;52.520;10.528;2024-03-29T08:03:51;99111.50;;;8.35
76381;BMP280;65202;52.520;10.528;2024-03-29T08:06:20;99114.44;;;8.21
76381;BMP280;65202;52.520;10.528;2024-03-29T08:08:50;99105.66;;;8.33
76381;BMP280;65202;52.520;10.528;2024-03-29T08:11:20;99103.25;;;8.36
76381;BMP280;65202;52.520;10.528;2024-03-29T08:13:46;99089.13;;;8.37
76381;BMP280;65202;52.520;10.528;2024-03-29T08:16:13;99093.88;;;8.59
76381;BMP280;65202;52.520;10.528;2024-03-29T08:18:39;99079.31;;;8.75
76381;BMP280;65202;52.520;10.528;2024-03-29T08:21:06;99080.25;;;8.78
76381;BMP280;65202;52.520;10.528;2024-03-29T08:23:41;99080.31;;;8.81
76381;BMP280;65202;52.520;10.528;2024-03-29T08:26:07;99071.47;;;8.94
76381;BMP280;65202;52.520;10.528;2024-03-29T08:28:34;99062.41;;;8.97
76381;BMP280;65202;52.520;10.528;2024-03-29T08:31:04;99079.97;;;9.02
76381;BMP280;65202;52.520;10.528;2024-03-29T08:33:32;99069.59;;;9.19
76381;BMP280;65202;52.520;10.528;2024-03-29T08:35:59;99072.97;;;9.21
76381;BMP280;65202;52.520;10.528;2024-03-29T08:38:25;99055.94;;;9.40
76381;BMP280;65202;52.520;10.528;2024-03-29T08:40:52;99055.94;;;9.40
76381;BMP280;65202;52.520;10.528;2024-03-29T08:43:18;99042.91;;;9.53
76381;BMP280;65202;52.520;10.528;2024-03-29T08:45:45;99050.06;;;9.77
76381;BMP280;65202;52.520;10.528;2024-03-29T08:48:12;99043.53;;;9.83
76381;BMP280;65202;52.520;10.528;2024-03-29T08:50:39;99032.78;;;9.87
76381;BMP280;65202;52.520;10.528;2024-03-29T08:53:06;99032.09;;;9.94
76381;BMP280;65202;52.520;10.528;2024-03-29T08:55:34;99040.53;;;9.98
76381;BMP280;65202;52.520;10.528;2024-03-29T08:58:01;99033.22;;;10.08
76381;BMP280;65202;52.520;10.528;2024-03-29T09:00:30;99034.47;;;9.90
76381;BMP280;65202;52.520;10.528;2024-03-29T09:02:57;99035.84;;;10.14
76381;BMP280;65202;52.520;10.528;2024-03-29T09:05:25;99034.41;;;10.25
76381;BMP280;65202;52.520;10.528;2024-03-29T09:07:53;99031.00;;;10.23
76381;BMP280;65202;52.520;10.528;2024-03-29T09:10:21;99039.28;;;10.19
76381;BMP280;65202;52.520;10.528;2024-03-29T09:12:48;99038.66;;;10.30
76381;BMP280;65202;52.520;10.528;2024-03-29T09:15:15;99048.66;;;10.30
76381;BMP280;65202;52.520;10.528;2024-03-29T09:17:43;99061.31;;;10.38
76381;BMP280;65202;52.520;10.528;2024-03-29T09:20:10;99060.56;;;10.43
76381;BMP280;65202;52.520;10.528;2024-03-29T09:22:37;99065.53;;;10.40
76381;BMP280;65202;52.520;10.528;2024-03-29T09:25:05;99064.72;;;10.43
76381;BMP280;65202;52.520;10.528;2024-03-29T09:27:32;99055.63;;;10.46
76381;BMP280;65202;52.520;10.528;2024-03-29T09:30:03;99064.09;;;10.54
76381;BMP280;65202;52.520;10.528;2024-03-29T09:32:33;99059.09;;;10.53
76381;BMP280;65202;52.520;10.528;2024-03-29T09:35:00;99039.91;;;10.55
76381;BMP280;65202;52.520;10.528;2024-03-29T09:37:27;99034.84;;;10.50
76381;BMP280;65202;52.520;10.528;2024-03-29T09:39:53;99034.91;;;10.55
76381;BMP280;65202;52.520;10.528;2024-03-29T09:42:22;99040.16;;;10.67
76381;BMP280;65202;52.520;10.528;2024-03-29T09:44:53;99051.97;;;10.75
76381;BMP280;65202;52.520;10.528;2024-03-29T09:47:23;99052.03;;;10.79
76381;BMP280;65202;52.520;10.528;2024-03-29T09:49:52;99051.88;;;10.70
76381;BMP280;65202;52.520;10.528;2024-03-29T09:52:21;99046.88;;;10.70
76381;BMP280;65202;52.520;10.528;2024-03-29T09:54:48;99041.03;;;10.68
76381;BMP280;65202;52.520;10.528;2024-03-29T09:57:16;99032.53;;;10.62
76381;BMP280;65202;52.520;10.528;2024-03-29T09:59:43;99031.19;;;10.80
76381;BMP280;65202;52.520;10.528;2024-03-29T10:02:16;99039.63;;;10.85
76381;BMP280;65202;52.520;10.528;2024-03-29T10:04:46;99040.31;;;10.77
76381;BMP280;65202;52.520;10.528;2024-03-29T10:07:18;99027.13;;;10.88
76381;BMP280;65202;52.520;10.528;2024-03-29T10:09:46;99013.03;;;10.92
76381;BMP280;65202;52.520;10.528;2024-03-29T10:12:12;99020.66;;;10.99
76381;BMP280;65202;52.520;10.528;2024-03-29T10:14:46;99020.78;;;11.08
76381;BMP280;65202;52.520;10.528;2024-03-29T10:17:19;99029.22;;;11.13
76381;BMP280;65202;52.520;10.528;2024-03-29T10:19:46;99021.88;;;11.24
76381;BMP280;65202;52.520;10.528;2024-03-29T10:22:13;99024.44;;;11.28
76381;BMP280;65202;52.520;10.528;2024-03-29T10:24:40;99023.72;;;11.38
76381;BMP280;65202;52.520;10.528;2024-03-29T10:27:07;99020.59;;;11.51
76381;BMP280;65202;52.520;10.528;2024-03-29T10:29:33;99043.22;;;11.54
76381;BMP280;65202;52.520;10.528;2024-03-29T10:32:00;99036.72;;;11.71
76381;BMP280;65202;52.520;10.528;2024-03-29T10:34:29;99036.72;;;11.71
76381;BMP280;65202;52.520;10.528;2024-03-29T10:37:03;99039.41;;;11.83
76381;BMP280;65202;52.520;10.528;2024-03-29T10:39:30;99041.94;;;11.86
76381;BMP280;65202;52.520;10.528;2024-03-29T10:42:00;99036.13;;;11.88
76381;BMP280;65202;52.520;10.528;2024-03-29T10:44:28;99045.38;;;11.93
76381;BMP280;65202;52.520;10.528;2024-03-29T10:46:58;99033.78;;;12.01
76381;BMP280;65202;52.520;10.528;2024-03-29T10:49:27;99039.63;;;12.03
76381;BMP280;65202;52.520;10.528;2024-03-29T10:51:59;99026.38;;;12.15
76381;BMP280;65202;52.520;10.528;2024-03-29T10:54:25;99028.31;;;12.37
76381;BMP280;65202;52.520;10.528;2024-03-29T10:56:59;99032.59;;;12.45
76381;BMP280;65202;52.520;10.528;2024-03-29T10:59:50;99029.19;;;12.40
76381;BMP280;65202;52.520;10.528;2024-03-29T11:02:45;99026.84;;;12.59
76381;BMP280;65202;52.520;10.528;2024-03-29T11:05:18;99036.19;;;12.74
76381;BMP280;65202;52.520;10.528;2024-03-29T11:07:46;99026.25;;;12.84
76381;BMP280;65202;52.520;10.528;2024-03-29T11:10:22;99032.19;;;12.89
76381;BMP280;65202;52.520;10.528;2024-03-29T11:13:10;99049.00;;;12.96
76381;BMP280;65202;52.520;10.528;2024-03-29T11:15:44;99038.03;;;12.90
76381;BMP280;65202;52.520;10.528;2024-03-29T11:18:14;99043.09;;;12.93
76381;BMP280;65202;52.520;10.528;2024-03-29T11:20:48;99034.69;;;12.92
76381;BMP280;65202;52.520;10.528;2024-03-29T11:23:20;99030.56;;;12.97
76381;BMP280;65202;52.520;10.528;2024-03-29T11:25:50;99033.88;;;12.95
76381;BMP280;65202;52.520;10.528;2024-03-29T11:28:31;99039.00;;;13.05
76381;BMP280;65202;52.520;10.528;2024-03-29T11:31:06;99038.94;;;12.99
76381;BMP280;65202;52.520;10.528;2024-03-29T11:33:35;99038.19;;;13.08
76381;BMP280;65202;52.520;10.528;2024-03-29T11:36:21;99040.75;;;13.17
76381;BMP280;65202;52.520;10.528;2024-03-29T11:38:52;99049.06;;;13.11
76381;BMP280;65202;52.520;10.528;2024-03-29T11:41:20;99056.53;;;13.01
76381;BMP280;65202;52.520;10.528;2024-03-29T11:43:53;99059.91;;;13.03
76381;BMP280;65202;52.520;10.528;2024-03-29T11:46:21;99059.09;;;13.05
76381;BMP280;65202;52.520;10.528;2024-03-29T11:48:49;99066.53;;;12.95
76381;BMP280;65202;52.520;10.528;2024-03-29T11:51:19;99062.44;;;13.06
76381;BMP280;65202;52.520;10.528;2024-03-29T11:53:54;99056.63;;;13.11
76381;BMP280;65202;52.520;10.528;2024-03-29T11:56:21;99057.34;;;12.97
76381;BMP280;65202;52.520;10.528;2024-03-29T11:58:48;99061.53;;;12.96
76381;BMP280;65202;52.520;10.528;2024-03-29T12:01:15;99059.94;;;13.06
76381;BMP280;65202;52.520;10.528;2024-03-29T12:03:43;99057.47;;;13.10
76381;BMP280;65202;52.520;10.528;2024-03-29T12:06:14;99047.38;;;13.03
76381;BMP280;65202;52.520;10.528;2024-03-29T12:08:41;99059.94;;;13.09
76381;BMP280;65202;52.520;10.528;2024-03-29T12:11:09;99045.72;;;13.09
76381;BMP280;65202;52.520;10.528;2024-03-29T12:13:35;99041.66;;;13.24
76381;BMP280;65202;52.520;10.528;2024-03-29T12:16:03;99053.44;;;13.34
76381;BMP280;65202;52.520;10.528;2024-03-29T12:18:33;99062.72;;;13.41
76381;BMP280;65202;52.520;10.528;2024-03-29T12:20:59;99051.78;;;13.36
76381;BMP280;65202;52.520;10.528;2024-03-29T12:23:26;99036.00;;;13.58
76381;BMP280;65202;52.520;10.528;2024-03-29T12:25:55;99033.53;;;13.66
76381;BMP280;65202;52.520;10.528;2024-03-29T12:28:24;99039.41;;;13.72
76381;BMP280;65202;52.520;10.528;2024-03-29T12:30:52;99016.84;;;13.83
76381;BMP280;65202;52.520;10.528;2024-03-29T12:33:22;99038.78;;;14.12
76381;BMP280;65202;52.520;10.528;2024-03-29T12:35:51;99018.69;;;14.30
76381;BMP280;65202;52.520;10.528;2024-03-29T12:38:21;99017.06;;;14.49
76381;BMP280;65202;52.520;10.528;2024-03-29T12:40:50;99019.56;;;14.58
76381;BMP280;65202;52.520;10.528;2024-03-29T12:43:22;99013.72;;;14.68
76381;BMP280;65202;52.520;10.528;2024-03-29T12:45:51;99027.16;;;14.61
76381;BMP280;65202;52.520;10.528;2024-03-29T12:48:22;99038.03;;;14.46
76381;BMP280;65202;52.520;10.528;2024-03-29T12:50:52;99032.16;;;14.47
76381;BMP280;65202;52.520;10.528;2024-03-29T12:53:19;99042.19;;;14.23
76381;BMP280;65202;52.520;10.528;2024-03-29T12:55:47;99039.69;;;14.32
76381;BMP280;65202;52.520;10.528;2024-03-29T12:58:16;99052.25;;;14.27
76381;BMP280;65202;52.520;10.528;2024-03-29T13:00:46;99060.66;;;14.28
76381;BMP280;65202;52.520;10.528;2024-03-29T13:03:12;99058.09;;;14.22
76381;BMP280;65202;52.520;10.528;2024-03-29T13:05:40;99045.50;;;14.16
76381;BMP280;65202;52.520;10.528;2024-03-29T13:08:12;99037.16;;;14.23
76381;BMP280;65202;52.520;10.528;2024-03-29T13:10:42;99048.06;;;14.32
76381;BMP280;65202;52.520;10.528;2024-03-29T13:13:10;99022.03;;;14.29
76381;BMP280;65202;52.520;10.528;2024-03-29T13:15:38;99015.38;;;14.48
76381;BMP280;65202;52.520;10.528;2024-03-29T13:18:06;99030.47;;;14.40
76381;BMP280;65202;52.520;10.528;2024-03-29T13:20:35;99033.03;;;14.66
76381;BMP280;65202;52.520;10.528;2024-03-29T13:23:07;99043.91;;;14.53
76381;BMP280;65202;52.520;10.528;2024-03-29T13:25:34;99065.75;;;14.60
76381;BMP280;65202;52.520;10.528;2024-03-29T13:28:01;99081.59;;;14.31
76381;BMP280;65202;52.520;10.528;2024-03-29T13:30:28;99083.31;;;14.41
76381;BMP280;65202;52.520;10.528;2024-03-29T13:32:55;99095.00;;;14.18
76381;BMP280;65202;52.520;10.528;2024-03-29T13:35:22;99108.44;;;14.23
76381;BMP280;65202;52.520;10.528;2024-03-29T13:37:49;99103.38;;;14.17
76381;BMP280;65202;52.520;10.528;2024-03-29T13:40:21;99099.19;;;14.21
76381;BMP280;65202;52.520;10.528;2024-03-29T13:42:50;99130.22;;;14.18
76381;BMP280;65202;52.520;10.528;2024-03-29T13:45:17;99114.19;;;14.04
76381;BMP280;65202;52.520;10.528;2024-03-29T13:47:45;99115.03;;;14.00
76381;BMP280;65202;52.520;10.528;2024-03-29T13:50:14;99108.38;;;14.10
76381;BMP280;65202;52.520;10.528;2024-03-29T13:52:43;99114.16;;;14.00
76381;BMP280;65202;52.520;10.528;2024-03-29T13:55:12;99110.91;;;14.16
76381;BMP280;65202;52.520;10.528;2024-03-29T13:57:40;99093.28;;;14.10
76381;BMP280;65202;52.520;10.528;2024-03-29T14:00:07;99109.16;;;14.07
76381;BMP280;65202;52.520;10.528;2024-03-29T14:02:34;99112.56;;;14.09
76381;BMP280;65202;52.520;10.528;2024-03-29T14:05:01;99113.41;;;14.11
76381;BMP280;65202;52.520;10.528;2024-03-29T14:07:28;99114.25;;;14.12
76381;BMP280;65202;52.520;10.528;2024-03-29T14:09:55;99105.88;;;14.13